Time;durP1;ratioP1;P1;durP2;ratioP2;P2;SDS_P1;SDS_P2;PMS_P1;PMS_P2;Temp;Humidity;BMP_temperature;BMP_pressure;BME280_temperature;BME280_humidity;BME280_pressure;Samples;Min_cycle;Max_cycle;Signal;HPM_P1;HPM_P2
2023/12/21 00:00:00;;;;;;;0.00;0.00;;;;;;;10.30;100.00;100213.94;4819976;29;20142;-79
2023/12/21 00:02:26;;;;;;;0.00;0.00;;;;;;;10.14;100.00;100182.22;4807322;29;20045;-79
2023/12/21 00:04:51;;;;;;;0.00;0.00;;;;;;;10.35;100.00;100220.56;4830272;29;20134;-80
2023/12/21 00:07:19;;;;;;;0.00;0.00;;;;;;;10.35;100.00;100231.47;4817217;29;20031;-80
2023/12/21 00:09:44;;;;;;;0.00;0.00;;;;;;;10.36;100.00;100211.28;4823439;29;20119;-79
2023/12/21 00:12:14;;;;;;;0.00;0.00;;;;;;;10.31;100.00;100193.72;4800508;29;20035;-77
2023/12/21 00:14:40;;;;;;;0.00;0.00;;;;;;;10.19;100.00;100189.59;4813926;29;20065;-78
2023/12/21 00:17:07;;;;;;;0.00;0.00;;;;;;;10.26;100.00;100199.16;4826270;29;20058;-78
2023/12/21 00:19:33;;;;;;;0.00;0.00;;;;;;;10.28;100.00;100205.19;4832301;29;20079;-80
2023/12/21 00:21:58;;;;;;;0.00;0.00;;;;;;;10.42;100.00;100229.31;4821164;29;20050;-81
2023/12/21 00:24:24;;;;;;;0.00;0.00;;;;;;;10.31;100.00;100188.25;4836764;29;20363;-80
2023/12/21 00:26:49;;;;;;;0.00;0.00;;;;;;;10.34;100.00;100191.56;4836990;29;20386;-80
2023/12/21 00:29:23;;;;;;;0.00;0.00;;;;;;;10.41;100.00;100197.59;4829094;29;20631;-80
2023/12/21 00:31:49;;;;;;;0.00;0.00;;;;;;;10.18;100.00;100145.06;4819460;29;20043;-79
2023/12/21 00:34:14;;;;;;;0.00;0.00;;;;;;;10.14;100.00;100117.44;4818016;29;20031;-81
2023/12/21 00:36:45;;;;;;;0.00;0.00;;;;;;;10.10;100.00;100096.41;4810313;29;20041;-81
2023/12/21 00:39:12;;;;;;;0.00;0.00;;;;;;;10.03;100.00;100093.94;4825788;29;20097;-81
2023/12/21 00:41:40;;;;;;;0.00;0.00;;;;;;;9.88;100.00;100083.78;4825085;29;20068;-80
2023/12/21 00:44:13;;;;;;;0.00;0.00;;;;;;;9.86;100.00;100076.97;4819694;29;20023;-78
2023/12/21 00:46:46;;;;;;;0.00;0.00;;;;;;;9.82;100.00;100057.56;4822646;29;20039;-80
2023/12/21 00:49:15;;;;;;;0.00;0.00;;;;;;;9.76;100.00;100045.00;4821338;29;20492;-78
2023/12/21 00:55:15;;;;;;;;;;;;;;;9.96;100.00;100088.72;4816725;29;20517;-77
2023/12/21 00:57:51;;;;;;;;;;;;;;;;;;;;;
2023/12/21 01:00:17;;;;;;;0.10;0.10;;;;;;;9.68;100.00;100070.09;4821285;29;20468;-76
2023/12/21 01:02:45;;;;;;;0.00;0.00;;;;;;;9.72;100.00;100080.19;4802383;29;20042;-76
2023/12/21 01:05:10;;;;;;;0.00;0.00;;;;;;;9.64;100.00;100096.28;4830369;29;20087;-77
2023/12/21 01:07:53;;;;;;;0.00;0.00;;;;;;;9.49;100.00;100078.78;4820830;29;20034;-77
2023/12/21 01:10:19;;;;;;;0.00;0.00;;;;;;;9.72;100.00;100093.84;4826392;29;20096;-77
2023/12/21 01:12:51;;;;;;;0.00;0.00;;;;;;;9.72;100.00;100087.56;4805221;29;20432;-75
2023/12/21 01:15:17;;;;;;;0.10;0.10;;;;;;;9.86;100.00;100099.63;4830031;29;20541;-76
2023/12/21 01:17:42;;;;;;;0.00;0.00;;;;;;;9.90;100.00;100089.81;4813761;29;20123;-74
2023/12/21 01:20:08;;;;;;;0.00;0.00;;;;;;;9.99;100.00;100092.84;4806277;29;20045;-75
2023/12/21 01:22:34;;;;;;;0.00;0.00;;;;;;;9.82;100.00;100059.47;4818145;29;20034;-75
2023/12/21 01:25:09;;;;;;;;;;;;;;;;;;;;;
2023/12/21 01:27:35;;;;;;;0.00;0.00;;;;;;;10.02;100.00;100069.63;4825384;29;20038;-74
2023/12/21 01:30:29;;;;;;;0.10;0.10;;;;;;;9.99;100.00;100067.41;4812538;29;20397;-76
2023/12/21 01:32:55;;;;;;;0.00;0.00;;;;;;;9.89;100.00;100058.13;4811053;29;20042;-74
2023/12/21 01:35:20;;;;;;;0.00;0.00;;;;;;;9.83;100.00;100056.47;4816309;29;20046;-74
2023/12/21 01:37:46;;;;;;;0.00;0.00;;;;;;;9.85;100.00;100069.88;4824712;29;20117;-73
2023/12/21 01:40:11;;;;;;;0.00;0.00;;;;;;;9.75;100.00;100081.56;4814023;29;20046;-75
2023/12/21 01:42:37;;;;;;;0.00;0.00;;;;;;;9.89;100.00;100066.31;4815961;29;20052;-74
2023/12/21 01:45:03;;;;;;;0.00;0.00;;;;;;;9.94;100.00;100070.97;4817156;29;20031;-76
2023/12/21 01:47:29;;;;;;;0.00;0.00;;;;;;;10.08;100.00;100068.53;4819089;29;20026;-75
2023/12/21 01:49:54;;;;;;;0.00;0.00;;;;;;;10.17;100.00;100050.50;4800450;29;20092;-73
2023/12/21 01:52:20;;;;;;;0.00;0.00;;;;;;;10.19;100.00;100053.81;4805591;29;20070;-75
2023/12/21 01:54:46;;;;;;;0.00;0.00;;;;;;;9.95;100.00;100062.50;4809913;29;20034;-76
2023/12/21 01:57:12;;;;;;;0.00;0.00;;;;;;;9.85;100.00;100092.53;4802335;29;20482;-76
2023/12/21 01:59:38;;;;;;;0.00;0.00;;;;;;;9.69;100.00;100082.66;4793368;29;20486;-76
2023/12/21 02:02:03;;;;;;;0.00;0.00;;;;;;;9.58;100.00;100082.63;4781613;29;20046;-76
2023/12/21 02:04:29;;;;;;;0.00;0.00;;;;;;;9.59;100.00;100081.53;4804624;29;20039;-77
2023/12/21 02:06:54;;;;;;;0.00;0.00;;;;;;;9.66;100.00;100072.28;4817154;29;20059;-77
2023/12/21 02:09:20;;;;;;;0.00;0.00;;;;;;;9.74;100.00;100066.31;4803505;29;20067;-75
2023/12/21 02:11:46;;;;;;;0.00;0.00;;;;;;;9.99;100.00;100097.47;4803371;29;20050;-76
2023/12/21 02:14:12;;;;;;;0.00;0.00;;;;;;;10.13;100.00;100071.25;4827529;29;20561;-75
2023/12/21 02:16:57;;;;;;;0.00;0.00;;;;;;;10.18;100.00;100062.25;4831473;29;20046;-76
2023/12/21 02:19:23;;;;;;;0.00;0.00;;;;;;;10.24;100.00;100051.06;4822338;29;20113;-76
2023/12/21 02:21:50;;;;;;;0.00;0.00;;;;;;;10.29;100.00;100053.81;4818305;29;20039;-75
2023/12/21 02:24:16;;;;;;;0.00;0.00;;;;;;;10.24;100.00;100037.41;4812086;29;20868;-77
2023/12/21 02:26:43;;;;;;;0.10;0.10;;;;;;;10.26;100.00;100048.06;4843442;29;20067;-75
2023/12/21 02:29:08;;;;;;;0.00;0.00;;;;;;;10.21;100.00;100040.69;4804267;29;20520;-76
2023/12/21 02:31:34;;;;;;;0.00;0.00;;;;;;;10.25;100.00;100035.47;4814202;29;20066;-76
2023/12/21 02:34:00;;;;;;;0.00;0.00;;;;;;;10.23;100.00;100034.94;4818482;29;20027;-77
2023/12/21 02:36:25;;;;;;;0.00;0.00;;;;;;;10.30;100.00;100066.34;4814308;29;20038;-75
2023/12/21 02:38:51;;;;;;;0.00;0.00;;;;;;;10.26;100.00;100054.31;4801779;29;20134;-76
2023/12/21 02:41:17;;;;;;;0.00;0.00;;;;;;;10.24;100.00;100072.13;4813461;29;20034;-76
2023/12/21 02:43:43;;;;;;;0.00;0.00;;;;;;;10.19;100.00;100059.28;4813424;29;20042;-76
2023/12/21 02:46:08;;;;;;;0.00;0.00;;;;;;;10.01;100.00;100035.19;4844710;29;20066;-76
2023/12/21 02:48:33;;;;;;;0.00;0.00;;;;;;;10.12;100.00;100050.53;4821915;29;20023;-75
2023/12/21 02:51:00;;;;;;;0.10;0.10;;;;;;;10.16;100.00;100042.59;4819610;29;20188;-76
2023/12/21 02:53:26;;;;;;;0.00;0.00;;;;;;;10.09;100.00;100026.44;4811351;29;20022;-75
2023/12/21 02:55:51;;;;;;;0.00;0.00;;;;;;;10.12;100.00;100031.41;4811517;29;20037;-73
2023/12/21 02:58:17;;;;;;;0.00;0.00;;;;;;;10.02;100.00;100009.53;4821207;29;20025;-74
2023/12/21 03:00:45;;;;;;;0.00;0.00;;;;;;;10.14;100.00;100024.53;4802377;29;20398;-75
2023/12/21 03:03:11;;;;;;;0.00;0.00;;;;;;;9.98;100.00;99981.13;4822623;29;20366;-75
2023/12/21 03:05:36;;;;;;;0.00;0.00;;;;;;;10.19;100.00;100021.00;4810995;29;20049;-74
2023/12/21 03:08:02;;;;;;;0.00;0.00;;;;;;;10.16;100.00;100015.25;4806160;29;20039;-75
2023/12/21 03:10:27;;;;;;;0.00;0.00;;;;;;;10.18;100.00;100008.44;4817845;29;20528;-74
2023/12/21 03:12:53;;;;;;;0.00;0.00;;;;;;;10.15;100.00;99992.59;4812640;29;20439;-75
2023/12/21 03:15:18;;;;;;;0.00;0.00;;;;;;;10.21;100.00;99996.97;4793542;29;20391;-75
2023/12/21 03:17:44;;;;;;;0.00;0.00;;;;;;;10.23;100.00;99994.75;4810830;29;20105;-75
2023/12/21 03:20:10;;;;;;;0.00;0.00;;;;;;;10.21;100.00;99996.16;4809661;29;20041;-75
2023/12/21 03:22:35;;;;;;;0.00;0.00;;;;;;;10.23;100.00;99994.75;4785747;29;20031;-74
2023/12/21 03:25:00;;;;;;;0.00;0.00;;;;;;;10.23;100.00;99978.38;4808137;29;20042;-75
2023/12/21 03:27:26;;;;;;;0.00;0.00;;;;;;;10.18;100.00;99947.47;4825023;29;20050;-75
2023/12/21 03:29:51;;;;;;;0.00;0.00;;;;;;;10.21;100.00;99939.56;4811161;29;20129;-75
2023/12/21 03:32:17;;;;;;;0.00;0.00;;;;;;;10.23;100.00;99948.31;4827462;29;20513;-75
2023/12/21 03:34:42;;;;;;;0.10;0.10;;;;;;;10.18;100.00;99945.59;4812042;29;20343;-75
2023/12/21 03:37:08;;;;;;;0.00;0.00;;;;;;;10.16;100.00;99923.16;4823224;29;20058;-75
2023/12/21 03:39:33;;;;;;;0.00;0.00;;;;;;;10.07;100.00;99922.09;4829276;29;20030;-75
2023/12/21 03:41:59;;;;;;;0.00;0.00;;;;;;;9.95;100.00;99939.59;4813910;29;20051;-74
2023/12/21 03:44:25;;;;;;;0.00;0.00;;;;;;;9.98;100.00;99940.16;4810923;29;20030;-74
2023/12/21 03:46:50;;;;;;;0.00;0.00;;;;;;;9.89;100.00;99935.22;4808475;29;20046;-74
2023/12/21 03:49:16;;;;;;;0.10;0.10;;;;;;;9.98;100.00;99930.03;4831724;29;20800;-75
2023/12/21 03:51:41;;;;;;;0.00;0.00;;;;;;;10.10;100.00;99907.88;4797187;29;20047;-74
2023/12/21 03:54:07;;;;;;;0.00;0.00;;;;;;;10.19;100.00;99925.38;4808532;29;20368;-75
2023/12/21 03:56:33;;;;;;;0.00;0.00;;;;;;;10.30;100.00;99926.97;4805075;29;20030;-75
2023/12/21 03:58:58;;;;;;;0.00;0.00;;;;;;;10.36;100.00;99921.53;4807352;29;20748;-74
2023/12/21 04:01:29;;;;;;;0.00;0.00;;;;;;;10.37;100.00;99906.78;4833285;29;20060;-76
2023/12/21 04:03:54;;;;;;;0.00;0.00;;;;;;;10.42;100.00;99896.63;4827473;29;20046;-75
2023/12/21 04:06:20;;;;;;;0.00;0.00;;;;;;;10.36;100.00;99880.56;4820770;29;22051;-75
2023/12/21 04:08:45;;;;;;;0.00;0.00;;;;;;;10.31;100.00;99882.16;4802161;29;20031;-75
2023/12/21 04:11:11;;;;;;;0.00;0.00;;;;;;;10.23;100.00;99876.44;4810033;29;20079;-75
2023/12/21 04:13:37;;;;;;;0.00;0.00;;;;;;;10.29;100.00;99867.97;4811773;29;20405;-75
2023/12/21 04:16:03;;;;;;;0.00;0.00;;;;;;;10.22;100.00;99844.75;4820449;29;20049;-77
2023/12/21 04:18:30;;;;;;;0.00;0.00;;;;;;;10.19;100.00;99851.59;4826072;29;20022;-76
2023/12/21 04:20:56;;;;;;;0.00;0.00;;;;;;;10.22;100.00;99850.22;4799962;29;20506;-76
2023/12/21 04:23:21;;;;;;;0.00;0.00;;;;;;;10.22;100.00;99836.53;4809485;29;20046;-75
2023/12/21 04:25:48;;;;;;;0.00;0.00;;;;;;;10.21;100.00;99843.94;4817062;29;20520;-76
2023/12/21 04:28:13;;;;;;;0.00;0.00;;;;;;;10.12;100.00;99831.94;4823302;29;20043;-76
2023/12/21 04:30:39;;;;;;;0.00;0.00;;;;;;;10.02;100.00;99823.78;4821095;29;20152;-76
2023/12/21 04:33:04;;;;;;;0.00;0.00;;;;;;;10.04;100.00;99827.84;4828675;29;20116;-76
2023/12/21 04:35:30;;;;;;;0.00;0.00;;;;;;;10.35;100.00;99870.69;4823064;29;20039;-73
2023/12/21 04:37:58;;;;;;;0.00;0.00;;;;;;;10.22;100.00;99815.53;4831877;29;20027;-75
2023/12/21 04:40:23;;;;;;;0.03;0.03;;;;;;;10.50;100.00;99839.75;4818855;29;20034;-74
2023/12/21 04:42:54;;;;;;;0.00;0.00;;;;;;;10.29;100.00;99823.41;4822154;29;20116;-76
2023/12/21 04:45:20;;;;;;;0.00;0.00;;;;;;;10.50;100.00;99840.59;4814516;29;20039;-75
2023/12/21 04:47:45;;;;;;;0.00;0.00;;;;;;;10.55;100.00;99880.75;4807826;29;20746;-76
2023/12/21 04:50:11;;;;;;;0.00;0.00;;;;;;;10.57;100.00;99863.00;4810592;29;20030;-76
2023/12/21 04:52:37;;;;;;;0.00;0.00;;;;;;;10.49;100.00;99860.81;4810063;29;20061;-76
2023/12/21 04:55:03;;;;;;;0.00;0.00;;;;;;;10.48;100.00;99859.19;4805963;29;20042;-76
2023/12/21 04:57:29;;;;;;;0.00;0.00;;;;;;;10.46;100.00;99855.91;4819731;29;20109;-77
2023/12/21 04:59:54;;;;;;;0.00;0.00;;;;;;;10.35;100.00;99854.31;4806686;29;20449;-75
2023/12/21 05:02:20;;;;;;;0.00;0.00;;;;;;;10.34;100.00;99869.06;4823424;29;20038;-75
2023/12/21 05:04:45;;;;;;;0.00;0.00;;;;;;;10.29;100.00;99857.03;4826431;29;20026;-74
2023/12/21 05:07:10;;;;;;;0.00;0.00;;;;;;;10.30;100.00;99820.41;4824205;29;20079;-74
2023/12/21 05:09:36;;;;;;;0.10;0.10;;;;;;;10.23;100.00;99808.94;4821562;29;20490;-75
2023/12/21 05:12:03;;;;;;;0.00;0.00;;;;;;;10.20;100.00;99801.31;4813260;29;20039;-76
2023/12/21 05:14:28;;;;;;;0.00;0.00;;;;;;;10.30;100.00;99831.31;4817009;29;20125;-76
2023/12/21 05:16:54;;;;;;;0.00;0.00;;;;;;;10.28;100.00;99828.06;4815319;29;20189;-75
2023/12/21 05:19:19;;;;;;;0.00;0.00;;;;;;;10.24;100.00;99835.19;4797457;29;20058;-76
2023/12/21 05:21:45;;;;;;;0.00;0.00;;;;;;;10.25;100.00;99831.34;4818890;29;20116;-77
2023/12/21 05:24:13;;;;;;;0.00;0.00;;;;;;;10.32;100.00;99825.59;4798410;29;20509;-76
2023/12/21 05:26:38;;;;;;;0.00;0.00;;;;;;;10.43;100.00;99829.94;4802007;29;20035;-75
2023/12/21 05:29:04;;;;;;;0.00;0.00;;;;;;;10.39;100.00;99811.66;4815180;29;20439;-76
2023/12/21 05:31:29;;;;;;;0.00;0.00;;;;;;;10.26;100.00;99824.78;4792473;29;20448;-76
2023/12/21 05:33:55;;;;;;;0.00;0.00;;;;;;;10.45;100.00;99826.94;4823955;29;20027;-75
2023/12/21 05:36:23;;;;;;;0.00;0.00;;;;;;;10.49;100.00;99822.56;4807426;29;20064;-75
2023/12/21 05:38:49;;;;;;;0.00;0.00;;;;;;;10.60;100.00;99823.31;4818295;29;20042;-74
2023/12/21 05:41:15;;;;;;;0.10;0.10;;;;;;;10.64;100.00;99829.84;4824105;29;20116;-75
2023/12/21 05:43:41;;;;;;;0.00;0.00;;;;;;;10.67;100.00;99814.81;4809320;29;20707;-74
2023/12/21 05:46:06;;;;;;;0.00;0.00;;;;;;;10.63;100.00;99815.38;4815767;29;20061;-75
2023/12/21 05:48:33;;;;;;;0.10;0.10;;;;;;;10.64;100.00;99797.03;4814091;29;20038;-75
2023/12/21 05:50:59;;;;;;;0.00;0.00;;;;;;;10.55;100.00;99796.81;4826865;29;20497;-76
2023/12/21 05:53:24;;;;;;;0.00;0.00;;;;;;;10.53;100.00;99790.81;4813351;29;20039;-73
2023/12/21 05:55:49;;;;;;;0.00;0.00;;;;;;;10.61;100.00;99803.88;4812000;29;20039;-74
2023/12/21 05:58:15;;;;;;;0.00;0.00;;;;;;;10.55;100.00;99794.09;4805396;29;20030;-74
2023/12/21 06:00:41;;;;;;;0.00;0.00;;;;;;;10.58;100.00;99792.72;4809792;29;20048;-74
2023/12/21 06:03:06;;;;;;;0.00;0.00;;;;;;;10.58;100.00;99825.53;4808063;29;20428;-73
2023/12/21 06:05:32;;;;;;;0.00;0.00;;;;;;;10.59;100.00;99803.38;4809811;29;20073;-74
2023/12/21 06:07:58;;;;;;;0.00;0.00;;;;;;;10.55;100.00;99805.00;4820067;29;20098;-75
2023/12/21 06:10:24;;;;;;;0.00;0.00;;;;;;;10.47;100.00;99800.16;4815105;29;20030;-74
2023/12/21 06:12:58;;;;;;;0.00;0.00;;;;;;;10.60;100.00;99824.16;4784741;29;20069;-74
2023/12/21 06:15:35;;;;;;;0.00;0.00;;;;;;;10.47;100.00;99797.41;4824000;29;20043;-76
2023/12/21 06:18:00;;;;;;;0.00;0.00;;;;;;;10.63;100.00;99844.63;4808703;29;20050;-74
2023/12/21 06:20:26;;;;;;;0.00;0.00;;;;;;;10.42;100.00;99789.22;4827106;29;20041;-75
2023/12/21 06:22:51;;;;;;;0.00;0.00;;;;;;;10.44;100.00;99781.56;4807717;29;20035;-76
2023/12/21 06:25:17;;;;;;;0.00;0.00;;;;;;;10.53;100.00;99812.69;4822236;29;20038;-75
2023/12/21 06:27:43;;;;;;;0.00;0.00;;;;;;;10.59;100.00;99805.28;4798755;29;20089;-74
2023/12/21 06:30:08;;;;;;;0.00;0.00;;;;;;;10.62;100.00;99802.78;4813400;29;20053;-76
2023/12/21 06:32:34;;;;;;;0.00;0.00;;;;;;;10.64;100.00;99795.16;4814964;29;20038;-73
2023/12/21 06:35:00;;;;;;;0.00;0.00;;;;;;;10.65;100.00;99794.03;4819712;29;20045;-74
2023/12/21 06:37:25;;;;;;;0.00;0.00;;;;;;;10.67;100.00;99807.41;4804438;29;20035;-74
2023/12/21 06:39:50;;;;;;;0.00;0.00;;;;;;;10.70;100.00;99784.16;4811114;29;20125;-75
2023/12/21 06:42:16;;;;;;;0.00;0.00;;;;;;;10.71;100.00;99800.28;4801019;29;20200;-75
2023/12/21 06:44:42;;;;;;;0.00;0.00;;;;;;;10.75;100.00;99795.09;4811343;29;20041;-73
2023/12/21 06:47:07;;;;;;;0.00;0.00;;;;;;;10.75;100.00;99792.34;4802293;29;20410;-75
2023/12/21 06:49:33;;;;;;;0.00;0.00;;;;;;;10.73;100.00;99800.84;4826929;29;20066;-75
2023/12/21 06:51:58;;;;;;;0.00;0.00;;;;;;;10.80;100.00;99792.31;4807710;29;20102;-75
2023/12/21 06:54:24;;;;;;;0.00;0.00;;;;;;;10.76;100.00;99770.19;4825887;29;20034;-75
2023/12/21 06:56:49;;;;;;;0.00;0.00;;;;;;;10.74;100.00;99777.03;4823244;29;20143;-76
2023/12/21 06:59:15;;;;;;;0.00;0.00;;;;;;;10.55;100.00;99758.53;4805769;29;20374;-75
2023/12/21 07:01:40;;;;;;;0.00;0.00;;;;;;;10.71;100.00;99775.69;4824216;29;20067;-74
2023/12/21 07:04:08;;;;;;;0.00;0.00;;;;;;;10.56;100.00;99795.72;4781732;29;20030;-75
2023/12/21 07:06:34;;;;;;;0.00;0.00;;;;;;;10.72;100.00;99792.88;4825119;29;20117;-75
2023/12/21 07:08:59;;;;;;;0.00;0.00;;;;;;;10.66;100.00;99775.72;4827143;29;20122;-77
2023/12/21 07:11:26;;;;;;;0.00;0.00;;;;;;;10.74;100.00;99807.13;4802262;29;20044;-74
2023/12/21 07:13:51;;;;;;;0.10;0.10;;;;;;;10.57;100.00;99764.56;4833256;29;20042;-75
2023/12/21 07:16:17;;;;;;;0.00;0.00;;;;;;;10.69;100.00;99782.53;4814985;29;20117;-74
2023/12/21 07:18:42;;;;;;;0.00;0.00;;;;;;;10.68;100.00;99791.84;4810157;29;20441;-76
2023/12/21 07:21:08;;;;;;;0.00;0.00;;;;;;;10.70;100.00;99781.44;4813228;29;20037;-74
2023/12/21 07:23:33;;;;;;;0.00;0.00;;;;;;;10.66;100.00;99767.53;4833186;29;20434;-75
2023/12/21 07:26:02;;;;;;;0.00;0.00;;;;;;;10.65;100.00;99766.69;4812876;29;20042;-75
2023/12/21 07:28:36;;;;;;;0.00;0.00;;;;;;;10.71;100.00;99769.41;4808874;29;20034;-76
2023/12/21 07:31:04;;;;;;;0.00;0.00;;;;;;;10.64;100.00;99778.75;4811105;29;20030;-75
2023/12/21 07:33:30;;;;;;;0.00;0.00;;;;;;;10.58;100.00;99754.44;4830092;29;20394;-77
2023/12/21 07:35:55;;;;;;;0.00;0.00;;;;;;;10.72;100.00;99760.06;4796138;29;20030;-76
2023/12/21 07:38:21;;;;;;;0.00;0.00;;;;;;;10.68;100.00;99764.50;4810473;29;20034;-76
2023/12/21 07:40:47;;;;;;;0.00;0.00;;;;;;;10.65;100.00;99757.69;4822428;29;20034;-76
2023/12/21 07:43:12;;;;;;;0.00;0.00;;;;;;;10.68;100.00;99757.09;4811620;29;21272;-75
2023/12/21 07:45:38;;;;;;;0.00;0.00;;;;;;;10.77;100.00;99773.72;4809514;29;20067;-76
2023/12/21 07:48:04;;;;;;;0.00;0.00;;;;;;;10.79;100.00;99733.22;4823283;29;20043;-75
2023/12/21 07:50:29;;;;;;;0.10;0.10;;;;;;;10.71;100.00;99722.91;4808872;29;20038;-76
2023/12/21 07:52:56;;;;;;;0.00;0.00;;;;;;;10.82;100.00;99758.09;4822745;29;20039;-76
2023/12/21 07:55:24;;;;;;;0.00;0.00;;;;;;;10.82;100.00;99727.22;4804666;29;20090;-77
2023/12/21 08:00:36;;;;;;;0.00;0.00;;;;;;;10.81;100.00;99720.09;4792512;29;20054;-76
2023/12/21 08:03:01;;;;;;;0.00;0.00;;;;;;;10.70;100.00;99729.47;4827305;29;20541;-77
2023/12/21 08:05:27;;;;;;;0.10;0.10;;;;;;;10.78;100.00;99699.59;4812877;29;20053;-77
2023/12/21 08:07:52;;;;;;;0.00;0.00;;;;;;;10.76;100.00;99701.00;4825585;29;20049;-76
2023/12/21 08:10:18;;;;;;;0.00;0.00;;;;;;;10.69;100.00;99681.34;4809913;29;20026;-76
2023/12/21 08:12:44;;;;;;;0.00;0.00;;;;;;;10.66;100.00;99680.03;4826896;29;20022;-78
2023/12/21 08:15:11;;;;;;;0.00;0.00;;;;;;;10.40;100.00;99665.72;4830724;29;20043;-78
2023/12/21 08:17:47;;;;;;;;;;;;;;;;;;;;;
2023/12/21 08:23:46;;;;;;;0.00;0.00;;;;;;;10.42;100.00;99680.72;4789256;29;20038;-78
2023/12/21 08:26:23;;;;;;;0.00;0.00;;;;;;;10.62;100.00;99712.56;4816044;29;20045;-77
2023/12/21 08:28:59;;;;;;;;;;;;;;;;;;;;;
2023/12/21 08:31:26;;;;;;;0.00;0.00;;;;;;;10.70;100.00;99663.84;4804515;29;20034;-77
2023/12/21 08:34:22;;;;;;;;;;;;;;;;;;;;;
2023/12/21 08:36:50;;;;;;;0.03;0.03;;;;;;;10.75;100.00;99704.84;4812679;29;20109;-76
2023/12/21 08:39:18;;;;;;;0.00;0.00;;;;;;;10.61;100.00;99675.38;4810873;29;20038;-77
2023/12/21 08:41:43;;;;;;;0.00;0.00;;;;;;;10.75;100.00;99691.16;4817998;29;20038;-75
2023/12/21 08:44:26;;;;;;;0.00;0.00;;;;;;;10.82;100.00;99680.72;4827218;29;20035;-80
2023/12/21 08:46:53;;;;;;;0.00;0.00;;;;;;;10.62;100.00;99627.81;4829376;29;20032;-79
2023/12/21 08:49:57;;;;;;;0.00;0.00;;;;;;;10.85;100.00;99654.69;4828068;29;20049;-78
2023/12/21 08:52:23;;;;;;;0.00;0.00;;;;;;;11.02;100.00;99687.91;4810484;29;21370;-78
2023/12/21 08:54:48;;;;;;;0.00;0.00;;;;;;;10.92;100.00;99660.66;4813151;29;20126;-77
2023/12/21 08:57:14;;;;;;;0.00;0.00;;;;;;;10.70;100.00;99639.25;4825095;29;20058;-77
2023/12/21 08:59:39;;;;;;;0.00;0.00;;;;;;;10.74;100.00;99638.38;4818567;29;20051;-79
2023/12/21 09:02:05;;;;;;;0.00;0.00;;;;;;;10.80;100.00;99647.34;4825744;29;20075;-78
2023/12/21 09:04:30;;;;;;;0.00;0.00;;;;;;;10.80;100.00;99628.22;4801111;29;20038;-77
2023/12/21 09:06:55;;;;;;;0.00;0.00;;;;;;;10.80;100.00;99603.59;4823577;29;20102;-77
2023/12/21 09:09:21;;;;;;;0.00;0.00;;;;;;;10.77;100.00;99606.91;4807214;29;20095;-77
2023/12/21 09:11:46;;;;;;;0.00;0.00;;;;;;;10.75;100.00;99584.53;4822929;29;20102;-77
2023/12/21 09:14:12;;;;;;;0.00;0.00;;;;;;;10.75;100.00;99581.78;4817946;29;20045;-78
2023/12/21 09:16:37;;;;;;;0.00;0.00;;;;;;;10.83;100.00;99594.81;4800737;29;20026;-77
2023/12/21 09:19:03;;;;;;;0.00;0.00;;;;;;;10.94;100.00;99601.81;4809803;29;20027;-80
2023/12/21 09:21:28;;;;;;;0.00;0.00;;;;;;;10.96;100.00;99585.94;4825228;29;20094;-79
2023/12/21 09:23:54;;;;;;;0.00;0.00;;;;;;;11.04;100.00;99624.72;4780729;29;20154;-77
2023/12/21 09:26:20;;;;;;;0.00;0.00;;;;;;;11.08;99.53;99587.47;4818752;29;20108;-77
2023/12/21 09:28:46;;;;;;;0.00;0.00;;;;;;;11.24;99.03;99591.66;4797081;29;20039;-78
2023/12/21 09:31:13;;;;;;;0.00;0.00;;;;;;;11.30;99.37;99593.25;4810607;29;20336;-77
2023/12/21 09:33:43;;;;;;;0.00;0.00;;;;;;;11.28;97.96;99580.97;4833420;29;20044;-78
2023/12/21 09:36:09;;;;;;;0.00;0.00;;;;;;;11.26;97.84;99605.88;4822496;29;20034;-78
2023/12/21 09:38:35;;;;;;;0.00;0.00;;;;;;;11.34;98.06;99631.78;4821732;29;20030;-77
2023/12/21 09:41:00;;;;;;;0.00;0.00;;;;;;;11.27;97.95;99634.91;4827936;29;20018;-80
2023/12/21 09:43:27;;;;;;;0.00;0.00;;;;;;;11.32;97.23;99612.94;4800365;29;20060;-78
2023/12/21 09:45:56;;;;;;;0.00;0.00;;;;;;;11.28;97.80;99597.38;4825203;29;20043;-79
2023/12/21 09:48:24;;;;;;;0.00;0.00;;;;;;;11.24;98.09;99594.38;4820398;29;20171;-79
2023/12/21 09:50:50;;;;;;;0.00;0.00;;;;;;;11.31;98.19;99591.31;4816198;29;20038;-77
2023/12/21 09:53:16;;;;;;;0.00;0.00;;;;;;;11.43;97.44;99567.06;4808133;29;20035;-78
2023/12/21 09:55:43;;;;;;;0.00;0.00;;;;;;;11.47;96.92;99584.56;4823990;29;20183;-78
2023/12/21 09:58:12;;;;;;;0.00;0.00;;;;;;;11.58;96.74;99600.84;4813922;29;20030;-78
2023/12/21 10:00:39;;;;;;;0.00;0.00;;;;;;;11.89;94.34;99606.75;4823770;29;20070;-77
2023/12/21 10:03:05;;;;;;;0.00;0.00;;;;;;;11.87;93.02;99548.69;4829604;29;20105;-79
2023/12/21 10:05:39;;;;;;;0.00;0.00;;;;;;;11.95;92.67;99648.63;4797408;29;20057;-79
2023/12/21 10:08:05;;;;;;;0.00;0.00;;;;;;;11.79;92.36;99598.69;4810686;29;20045;-78
2023/12/21 10:10:39;;;;;;;0.00;0.00;;;;;;;11.65;93.68;99596.66;4815301;29;20047;-78
2023/12/21 10:16:00;;;;;;;0.00;0.00;;;;;;;12.14;91.17;99630.28;4809817;29;20424;-78
2023/12/21 10:18:30;;;;;;;0.00;0.00;;;;;;;12.52;90.38;99649.47;4824095;29;20375;-77
2023/12/21 10:20:59;;;;;;;0.00;0.00;;;;;;;12.17;88.88;99591.31;4809142;29;20435;-79
2023/12/21 10:23:58;;;;;;;0.00;0.00;;;;;;;12.18;88.56;99633.25;4827311;29;20027;-79
2023/12/21 10:26:16;;;;;;;0.00;0.00;;;;;;;12.15;88.53;99587.22;4819124;29;20035;-79
2023/12/21 10:28:42;;;;;;;0.00;0.00;;;;;;;13.03;85.08;99609.38;4840966;29;20030;-82
2023/12/21 10:31:19;;;;;;;;;;;;;;;;;;;;;
2023/12/21 10:33:44;;;;;;;0.00;0.00;;;;;;;13.29;82.64;99603.41;4814497;29;20054;-79
2023/12/21 10:36:10;;;;;;;0.00;0.00;;;;;;;13.87;80.28;99639.63;4823389;29;21139;-79
2023/12/21 10:38:36;;;;;;;0.00;0.00;;;;;;;14.09;77.14;99622.38;4805878;29;20033;-80
2023/12/21 10:41:05;;;;;;;0.00;0.00;;;;;;;14.02;77.12;99652.22;4831934;29;20038;-79
2023/12/21 10:43:32;;;;;;;0.00;0.00;;;;;;;14.62;76.09;99651.22;4828751;29;20034;-80
2023/12/21 10:46:00;;;;;;;0.00;0.00;;;;;;;15.61;70.65;99611.69;4811817;29;20056;-78
2023/12/21 10:48:38;;;;;;;0.00;0.00;;;;;;;16.00;67.73;99634.84;4826658;29;20046;-83
2023/12/21 10:51:07;;;;;;;0.00;0.00;;;;;;;15.97;68.05;99663.88;4828103;29;20046;-78
2023/12/21 10:53:33;;;;;;;0.00;0.00;;;;;;;15.58;68.51;99667.47;4803590;29;20035;-79
2023/12/21 10:56:07;;;;;;;0.00;0.00;;;;;;;14.78;71.03;99684.66;4810810;29;20109;-80
2023/12/21 10:58:48;;;;;;;0.00;0.00;;;;;;;13.64;76.56;99646.97;4831613;29;20026;-80
2023/12/21 11:01:16;;;;;;;0.00;0.00;;;;;;;13.09;79.41;99665.81;4826241;29;20046;-81
2023/12/21 11:04:18;;;;;;;0.00;0.00;;;;;;;12.65;81.60;99647.88;4822178;29;20042;-79
2023/12/21 11:06:47;;;;;;;0.00;0.00;;;;;;;12.52;83.75;99673.34;4820495;29;20560;-78
2023/12/21 11:09:25;;;;;;;0.00;0.00;;;;;;;12.23;83.76;99655.91;4808836;29;20034;-78
2023/12/21 11:12:01;;;;;;;;;;;;;;;;;;;;;
2023/12/21 11:14:27;;;;;;;0.00;0.00;;;;;;;12.37;84.42;99688.88;4806060;29;20038;-78
2023/12/21 11:17:00;;;;;;;0.00;0.00;;;;;;;12.45;83.99;99698.38;4825890;29;20041;-81
2023/12/21 11:19:29;;;;;;;0.00;0.00;;;;;;;12.16;84.49;99639.03;4815342;29;21242;-80
2023/12/21 11:21:55;;;;;;;0.00;0.00;;;;;;;12.55;84.02;99700.97;4819798;29;20039;-79
2023/12/21 11:24:24;;;;;;;0.00;0.00;;;;;;;12.44;84.41;99715.13;4829069;29;20052;-80
2023/12/21 11:26:59;;;;;;;0.00;0.00;;;;;;;12.03;84.84;99684.41;4833414;29;20129;-80
2023/12/21 11:29:49;;;;;;;;;;;;;;;;;;;;;
2023/12/21 11:32:50;;;;;;;;;;;;;;;;;;;;;
2023/12/21 11:35:37;;;;;;;;;;;;;;;;;;;;;
2023/12/21 11:38:49;;;;;;;;;;;;;;;;;;;;;
2023/12/21 11:41:56;;;;;;;0.00;0.00;;;;;;;12.74;82.00;99670.78;4811656;29;20033;-78
2023/12/21 11:48:32;;;;;;;0.00;0.00;;;;;;;13.22;79.24;99723.81;4822497;29;20046;-80
2023/12/21 11:51:53;;;;;;;;;;;;;;;;;;;;;
2023/12/21 11:54:36;;;;;;;;;;;;;;;;;;;;;
2023/12/21 11:58:01;;;;;;;;;;;;;;;;;;;;;
2023/12/21 12:00:37;;;;;;;;;;;;;;;;;;;;;
2023/12/21 12:05:58;;;;;;;0.00;0.00;;;;;;;12.10;86.44;99707.91;4810094;29;20042;-80
2023/12/21 12:08:24;;;;;;;0.00;0.00;;;;;;;12.14;85.87;99700.72;4811759;29;20133;-79
2023/12/21 12:11:09;;;;;;;;;;;;;;;;;;;;;